createdAt,value
2022-11-22T00:01:02.211Z,1.70
2022-11-22T00:03:30.474Z,1.95
2022-11-22T00:05:58.286Z,1.75
2022-11-22T00:08:26.040Z,1.50
2022-11-22T00:10:53.970Z,2.10
2022-11-22T00:13:22.154Z,1.80
2022-11-22T00:16:00.120Z,1.77
2022-11-22T00:18:29.881Z,1.55
2022-11-22T00:20:58.112Z,1.70
2022-11-22T00:23:25.866Z,1.77
2022-11-22T00:25:53.615Z,2.30
2022-11-22T00:28:21.354Z,1.80
2022-11-22T00:30:49.055Z,2.20
2022-11-22T00:33:16.778Z,1.50
2022-11-22T00:35:47.519Z,1.80
2022-11-22T00:38:15.393Z,1.45
2022-11-22T00:40:44.290Z,1.30
2022-11-22T00:43:12.065Z,1.83
2022-11-22T00:45:42.236Z,2.13
2022-11-22T00:48:10.318Z,2.50
2022-11-22T00:50:38.049Z,1.73
2022-11-22T00:53:07.419Z,2.45
2022-11-22T00:55:35.626Z,2.28
2022-11-22T00:58:04.167Z,2.33
2022-11-22T01:00:32.584Z,1.85
2022-11-22T01:03:00.524Z,1.90
2022-11-22T01:05:28.415Z,1.85
2022-11-22T01:07:56.539Z,1.73
2022-11-22T01:10:25.674Z,2.20
2022-11-22T01:12:53.418Z,2.63
2022-11-22T01:15:21.247Z,2.40
2022-11-22T01:17:49.022Z,2.28
2022-11-22T01:20:17.114Z,2.40
2022-11-22T01:22:44.976Z,2.28
2022-11-22T01:25:13.038Z,1.77
2022-11-22T01:27:42.119Z,2.30
2022-11-22T01:30:10.911Z,1.95
2022-11-22T01:32:38.633Z,2.22
2022-11-22T01:35:10.268Z,2.08
2022-11-22T01:37:38.355Z,2.65
2022-11-22T01:40:07.799Z,2.00
2022-11-22T01:42:51.158Z,2.55
2022-11-22T01:45:44.311Z,2.33
2022-11-22T01:48:32.248Z,1.80
2022-11-22T01:51:05.616Z,2.15
2022-11-22T01:53:39.722Z,2.17
2022-11-22T01:58:51.624Z,2.00
2022-11-22T02:01:20.301Z,1.17
2022-11-22T02:03:54.978Z,2.95
2022-11-22T02:09:00.507Z,1.55
2022-11-22T02:11:33.782Z,1.63
2022-11-22T02:14:05.495Z,1.52
2022-11-22T02:16:37.902Z,1.90
2022-11-22T02:19:15.570Z,2.47
2022-11-22T02:21:49.699Z,2.30
2022-11-22T02:24:25.684Z,1.27
2022-11-22T02:26:54.734Z,1.38
2022-11-22T02:29:23.175Z,1.45
2022-11-22T02:31:50.963Z,1.38
2022-11-22T02:34:18.691Z,1.33
2022-11-22T02:36:51.329Z,1.20
2022-11-22T02:39:25.306Z,1.50
2022-11-22T02:41:57.146Z,1.13
2022-11-22T02:44:26.575Z,1.65
2022-11-22T02:46:56.775Z,1.05
2022-11-22T02:49:26.679Z,0.77
2022-11-22T02:51:54.973Z,1.08
2022-11-22T02:54:23.234Z,0.95
2022-11-22T02:56:51.564Z,1.42
2022-11-22T02:59:21.450Z,1.30
2022-11-22T03:01:50.542Z,1.10
2022-11-22T03:04:25.501Z,1.30
2022-11-22T03:06:56.178Z,1.27
2022-11-22T03:09:24.446Z,1.58
2022-11-22T03:11:53.174Z,1.30
2022-11-22T03:14:22.399Z,0.90
2022-11-22T03:16:50.338Z,1.60
2022-11-22T03:19:18.147Z,1.25
2022-11-22T03:21:46.211Z,1.13
2022-11-22T03:24:14.347Z,1.23
2022-11-22T03:26:42.299Z,1.30
2022-11-22T03:29:10.019Z,1.63
2022-11-22T03:31:39.186Z,1.60
2022-11-22T03:34:06.902Z,1.45
2022-11-22T03:36:34.622Z,0.80
2022-11-22T03:39:02.327Z,1.13
2022-11-22T03:41:30.063Z,0.63
2022-11-22T03:43:57.833Z,1.23
2022-11-22T03:46:25.559Z,1.27
2022-11-22T03:48:54.650Z,1.08
2022-11-22T03:51:22.539Z,1.08
2022-11-22T03:53:50.383Z,0.80
2022-11-22T03:56:18.603Z,1.13
2022-11-22T03:58:46.338Z,1.58
2022-11-22T04:01:16.714Z,1.48
2022-11-22T04:03:44.994Z,2.28
2022-11-22T04:06:14.125Z,0.85
2022-11-22T04:08:42.154Z,1.38
2022-11-22T04:11:10.686Z,0.90
2022-11-22T04:13:56.065Z,1.48
2022-11-22T04:16:23.755Z,0.88
2022-11-22T04:18:51.448Z,1.00
2022-11-22T04:21:40.243Z,1.35
2022-11-22T04:24:36.986Z,1.40
2022-11-22T04:27:04.979Z,0.85
2022-11-22T04:29:33.160Z,0.68
2022-11-22T04:32:18.583Z,1.17
2022-11-22T04:34:46.288Z,1.48
2022-11-22T04:37:15.329Z,0.50
2022-11-22T04:39:43.071Z,0.77
2022-11-22T04:42:28.238Z,1.55
2022-11-22T04:44:56.424Z,0.73
2022-11-22T04:47:43.876Z,0.70
2022-11-22T04:50:31.435Z,0.47
2022-11-22T04:53:00.467Z,0.10
2022-11-22T04:55:28.214Z,0.20
2022-11-22T04:57:59.572Z,0.52
2022-11-22T05:00:30.176Z,0.30
2022-11-22T05:02:59.757Z,0.10
2022-11-22T05:05:28.833Z,0.10
2022-11-22T05:07:58.654Z,0.30
2022-11-22T05:10:27.934Z,0.40
2022-11-22T05:12:56.991Z,0.10
2022-11-22T05:15:24.790Z,0.47
2022-11-22T05:17:52.750Z,0.52
2022-11-22T05:20:20.594Z,0.10
2022-11-22T05:23:05.897Z,0.20
2022-11-22T05:25:35.016Z,0.28
2022-11-22T05:28:02.711Z,0.25
2022-11-22T05:30:31.327Z,0.30
2022-11-22T05:32:59.043Z,0.40
2022-11-22T05:35:26.798Z,0.30
2022-11-22T05:37:56.614Z,0.30
2022-11-22T05:40:25.303Z,0.10
2022-11-22T05:42:54.602Z,0.52
2022-11-22T05:45:22.318Z,0.10
2022-11-22T05:47:50.002Z,0.10
2022-11-22T05:50:18.163Z,0.10
2022-11-22T05:52:45.908Z,0.10
2022-11-22T05:55:13.724Z,0.10
2022-11-22T05:57:41.452Z,0.28
2022-11-22T06:00:12.072Z,0.10
2022-11-22T06:02:39.816Z,0.20
2022-11-22T06:05:09.159Z,0.10
2022-11-22T06:07:36.948Z,0.10
2022-11-22T06:10:05.234Z,0.22
2022-11-22T06:12:32.962Z,0.20
2022-11-22T06:15:01.206Z,0.55
2022-11-22T06:17:30.240Z,0.32
2022-11-22T06:20:01.358Z,0.32
2022-11-22T06:22:33.887Z,0.20
2022-11-22T06:25:01.846Z,0.40
2022-11-22T06:27:29.603Z,0.20
2022-11-22T06:29:57.338Z,0.20
2022-11-22T06:32:25.075Z,0.20
2022-11-22T06:34:54.124Z,0.32
2022-11-22T06:37:22.083Z,0.25
2022-11-22T06:39:50.145Z,0.43
2022-11-22T06:42:18.060Z,0.35
2022-11-22T06:44:45.767Z,0.10
2022-11-22T06:47:13.433Z,0.30
2022-11-22T06:49:41.193Z,0.30
2022-11-22T06:52:10.289Z,0.57
2022-11-22T06:54:38.044Z,0.60
2022-11-22T06:57:05.736Z,0.32
2022-11-22T06:59:33.444Z,0.82
2022-11-22T07:02:06.097Z,0.45
2022-11-22T07:04:34.480Z,0.25
2022-11-22T07:07:02.663Z,0.57
2022-11-22T07:09:32.274Z,0.70
2022-11-22T07:12:00.317Z,0.50
2022-11-22T07:14:28.034Z,0.47
2022-11-22T07:16:55.743Z,0.50
2022-11-22T07:19:23.743Z,0.20
2022-11-22T07:21:51.619Z,0.30
2022-11-22T07:24:19.338Z,0.35
2022-11-22T07:26:48.759Z,0.40
2022-11-22T07:29:16.439Z,0.40
2022-11-22T07:31:46.139Z,0.30
2022-11-22T07:34:14.187Z,0.40
2022-11-22T07:36:41.980Z,0.20
2022-11-22T07:39:09.743Z,0.25
2022-11-22T07:41:37.707Z,0.50
2022-11-22T07:44:06.815Z,1.77
2022-11-22T07:46:34.674Z,1.33
2022-11-22T07:49:03.456Z,0.50
2022-11-22T07:51:31.590Z,0.52
2022-11-22T07:53:59.370Z,0.52
2022-11-22T07:56:27.227Z,0.60
2022-11-22T07:58:55.941Z,0.30
2022-11-22T08:01:24.999Z,0.40
2022-11-22T08:03:52.977Z,0.57
2022-11-22T08:06:20.719Z,0.28
2022-11-22T08:08:48.894Z,0.20
2022-11-22T08:11:17.217Z,0.40
2022-11-22T08:13:45.349Z,0.17
2022-11-22T08:16:17.590Z,0.20
2022-11-22T08:18:50.512Z,0.28
2022-11-22T08:21:20.110Z,0.55
2022-11-22T08:23:49.376Z,0.38
2022-11-22T08:26:20.968Z,0.60
2022-11-22T08:28:48.710Z,0.55
2022-11-22T08:31:19.937Z,0.20
2022-11-22T08:33:49.699Z,0.52
2022-11-22T08:36:17.571Z,0.55
2022-11-22T08:38:45.641Z,0.30
2022-11-22T08:41:13.808Z,0.55
2022-11-22T08:43:41.508Z,0.30
2022-11-22T08:46:09.283Z,0.50
2022-11-22T08:48:39.334Z,0.47
2022-11-22T08:51:11.144Z,0.45
2022-11-22T08:53:41.614Z,0.95
2022-11-22T08:56:13.806Z,0.15
2022-11-22T08:58:42.347Z,0.65
2022-11-22T09:01:13.635Z,0.35
2022-11-22T09:03:42.990Z,0.30
2022-11-22T09:09:30.080Z,0.57
2022-11-22T09:11:51.279Z,0.22
2022-11-22T09:14:19.038Z,0.40
2022-11-22T09:16:46.712Z,0.63
2022-11-22T09:19:14.585Z,0.30
2022-11-22T09:21:43.683Z,1.45
2022-11-22T09:24:11.394Z,0.43
2022-11-22T09:26:39.118Z,0.65
2022-11-22T09:29:07.021Z,0.60
2022-11-22T09:31:34.832Z,0.77
2022-11-22T09:34:02.616Z,0.90
2022-11-22T09:36:30.905Z,0.47
2022-11-22T09:39:00.088Z,0.32
2022-11-22T09:42:10.374Z,0.38
2022-11-22T09:45:13.750Z,0.50
2022-11-22T09:47:57.335Z,0.52
2022-11-22T09:50:35.868Z,0.88
2022-11-22T09:53:11.841Z,0.50
2022-11-22T09:55:46.751Z,0.52
2022-11-22T09:58:30.546Z,0.93
2022-11-22T10:01:08.607Z,0.20
2022-11-22T10:03:48.242Z,0.30
2022-11-22T10:06:26.055Z,0.47
2022-11-22T10:09:08.086Z,0.50
2022-11-22T10:11:46.619Z,0.30
2022-11-22T10:14:31.183Z,0.50
2022-11-22T10:17:14.115Z,0.47
2022-11-22T10:19:54.502Z,0.52
2022-11-22T10:22:31.058Z,0.57
2022-11-22T10:25:01.411Z,0.30
2022-11-22T10:27:33.798Z,0.55
2022-11-22T10:30:07.402Z,0.30
2022-11-22T10:32:43.955Z,0.20
2022-11-22T10:35:43.018Z,0.70
2022-11-22T10:38:43.316Z,0.40
2022-11-22T10:41:37.345Z,0.50
2022-11-22T10:44:26.186Z,0.47
2022-11-22T10:47:11.771Z,0.47
2022-11-22T10:49:57.101Z,0.63
2022-11-22T10:52:38.547Z,0.40
2022-11-22T10:55:22.865Z,0.50
2022-11-22T10:58:05.671Z,0.50
2022-11-22T11:00:39.289Z,0.32
2022-11-22T11:03:23.478Z,0.60
2022-11-22T11:09:48.091Z,0.60
2022-11-22T11:11:45.027Z,0.20
2022-11-22T11:14:28.974Z,0.30
2022-11-22T11:17:00.306Z,0.50
2022-11-22T11:19:33.019Z,0.40
2022-11-22T11:22:17.461Z,0.65
2022-11-22T11:24:48.962Z,0.77
2022-11-22T11:27:21.361Z,0.35
2022-11-22T11:30:01.010Z,1.02
2022-11-22T11:32:30.203Z,0.52
2022-11-22T11:35:02.748Z,1.13
2022-11-22T11:37:36.611Z,0.40
2022-11-22T11:40:04.973Z,0.30
2022-11-22T11:42:35.032Z,0.50
2022-11-22T11:45:29.751Z,0.20
2022-11-22T11:47:58.787Z,0.32
2022-11-22T11:50:29.839Z,0.57
2022-11-22T11:53:05.735Z,0.20
2022-11-22T11:55:37.126Z,0.85
2022-11-22T11:58:20.495Z,0.73
2022-11-22T12:00:48.627Z,0.35
2022-11-22T12:03:21.262Z,0.65
2022-11-22T12:05:48.998Z,0.32
2022-11-22T12:08:31.079Z,0.70
2022-11-22T12:11:06.428Z,0.40
2022-11-22T12:14:04.787Z,0.30
2022-11-22T12:16:33.803Z,0.60
2022-11-22T12:19:20.290Z,0.38
2022-11-22T12:22:01.592Z,0.50
2022-11-22T12:27:26.896Z,0.40
2022-11-22T12:29:54.967Z,0.40
2022-11-22T12:32:29.410Z,0.88
2022-11-22T12:35:06.364Z,0.25
2022-11-22T12:37:43.221Z,0.55
2022-11-22T12:40:18.819Z,0.40
2022-11-22T12:42:53.929Z,0.30
2022-11-22T12:45:31.137Z,0.60
2022-11-22T12:48:06.288Z,0.65
2022-11-22T12:48:23.138Z,0.50
2022-11-22T12:50:45.218Z,0.50
2022-11-22T12:53:17.255Z,0.52
2022-11-22T12:55:52.193Z,0.35
2022-11-22T12:58:28.519Z,0.82
2022-11-22T13:01:14.288Z,0.50
2022-11-22T13:03:53.314Z,0.47
2022-11-22T13:06:28.769Z,0.40
2022-11-22T13:09:04.202Z,0.60
2022-11-22T13:11:38.378Z,0.38
2022-11-22T13:14:29.199Z,0.10
2022-11-22T13:16:57.583Z,0.40
2022-11-22T13:19:31.818Z,0.43
2022-11-22T13:22:16.276Z,0.30
2022-11-22T13:25:09.254Z,0.82
2022-11-22T13:27:44.293Z,0.47
2022-11-22T13:30:20.465Z,0.20
2022-11-22T13:32:53.143Z,0.30
2022-11-22T13:35:31.445Z,0.32
2022-11-22T13:38:05.571Z,0.40
2022-11-22T13:40:37.587Z,0.40
2022-11-22T13:43:50.215Z,0.20
2022-11-22T13:46:55.824Z,0.52
2022-11-22T13:49:39.161Z,0.30
2022-11-22T13:52:53.368Z,0.52
2022-11-22T13:55:40.443Z,0.22
2022-11-22T13:58:51.940Z,0.30
2022-11-22T14:02:03.598Z,0.10
2022-11-22T14:04:44.195Z,0.73
2022-11-22T14:07:35.510Z,0.30
2022-11-22T14:10:21.680Z,0.30
2022-11-22T14:13:38.846Z,0.57
2022-11-22T14:16:27.298Z,0.63
2022-11-22T14:19:08.616Z,0.30
2022-11-22T14:21:53.522Z,0.10
2022-11-22T14:24:42.541Z,0.30
2022-11-22T14:27:27.690Z,0.15
2022-11-22T14:30:10.515Z,0.47
2022-11-22T14:32:50.375Z,0.30
2022-11-22T14:35:37.527Z,0.55
2022-11-22T14:38:32.969Z,0.50
2022-11-22T14:44:04.195Z,0.13
2022-11-22T14:46:56.780Z,0.68
2022-11-22T14:49:44.792Z,0.20
2022-11-22T14:52:27.086Z,0.35
2022-11-22T14:55:00.102Z,0.40
2022-11-22T14:57:33.242Z,0.20
2022-11-22T15:00:17.927Z,0.30
2022-11-22T15:03:41.036Z,0.60
2022-11-22T15:09:14.160Z,0.17
2022-11-22T15:09:53.914Z,0.38
2022-11-22T15:12:53.819Z,0.10
2022-11-22T15:57:28.199Z,0.10
2022-11-22T15:59:57.429Z,0.20
2022-11-22T16:02:29.835Z,0.20
2022-11-22T16:06:07.397Z,0.30
2022-11-22T16:07:51.828Z,0.10
2022-11-22T16:10:23.799Z,0.10
2022-11-22T16:12:53.395Z,0.13
2022-11-22T16:15:30.150Z,0.28
2022-11-22T16:18:09.364Z,0.22
2022-11-22T16:20:40.141Z,0.17
2022-11-22T16:23:21.486Z,0.30
2022-11-22T16:25:54.164Z,0.32
2022-11-22T16:28:30.552Z,0.13
2022-11-22T16:31:01.642Z,0.20
2022-11-22T16:33:29.444Z,0.22
2022-11-22T16:35:59.641Z,0.57
2022-11-22T16:38:29.761Z,0.38
2022-11-22T16:40:59.762Z,0.20
2022-11-22T16:43:34.338Z,0.25
2022-11-22T16:46:02.468Z,0.68
2022-11-22T16:48:32.988Z,0.30
2022-11-22T16:51:05.699Z,0.47
2022-11-22T16:53:43.883Z,0.30
2022-11-22T16:56:19.423Z,0.28
2022-11-22T16:58:47.918Z,0.52
2022-11-22T17:01:18.770Z,0.20
2022-11-22T17:03:49.265Z,0.50
2022-11-22T17:06:20.178Z,0.30
2022-11-22T17:08:51.798Z,0.40
2022-11-22T17:11:23.260Z,0.40
2022-11-22T17:13:51.820Z,0.30
2022-11-22T17:16:19.721Z,0.50
2022-11-22T17:18:48.884Z,0.60
2022-11-22T17:21:30.326Z,0.40
2022-11-22T17:24:06.310Z,0.57
2022-11-22T17:26:34.971Z,0.77
2022-11-22T17:29:02.917Z,0.80
2022-11-22T17:31:31.055Z,0.32
2022-11-22T17:34:00.582Z,0.60
2022-11-22T17:36:31.183Z,0.60
2022-11-22T17:39:02.444Z,0.20
2022-11-22T17:41:31.983Z,1.38
2022-11-22T17:43:59.954Z,0.45
2022-11-22T17:46:29.371Z,0.40
2022-11-22T17:48:59.524Z,0.77
2022-11-22T17:51:28.716Z,0.75
2022-11-22T17:53:58.114Z,0.55
2022-11-22T17:56:27.243Z,0.98
2022-11-22T17:58:56.362Z,0.63
2022-11-22T18:01:24.771Z,0.57
2022-11-22T18:03:52.632Z,0.98
2022-11-22T18:06:22.442Z,0.40
2022-11-22T18:08:50.427Z,0.95
2022-11-22T18:11:18.732Z,0.75
2022-11-22T18:13:46.690Z,0.50
2022-11-22T18:16:18.927Z,0.63
2022-11-22T18:19:02.562Z,0.52
2022-11-22T18:21:33.528Z,0.65
2022-11-22T18:24:02.624Z,0.90
2022-11-22T18:26:45.662Z,0.95
2022-11-22T18:32:04.188Z,0.88
2022-11-22T18:34:32.024Z,0.93
2022-11-22T18:37:03.546Z,0.82
2022-11-22T18:39:34.757Z,0.85
2022-11-22T18:42:03.519Z,0.47
2022-11-22T18:44:31.247Z,0.75
2022-11-22T18:46:58.987Z,1.02
2022-11-22T18:49:28.281Z,0.32
2022-11-22T18:51:56.718Z,0.60
2022-11-22T18:54:24.898Z,0.70
2022-11-22T18:56:53.070Z,0.35
2022-11-22T18:59:20.860Z,0.52
2022-11-22T19:01:48.754Z,0.45
2022-11-22T19:04:17.272Z,0.63
2022-11-22T19:06:46.518Z,0.57
2022-11-22T19:09:14.322Z,0.45
2022-11-22T19:11:42.052Z,0.75
2022-11-22T19:14:09.814Z,1.00
2022-11-22T19:16:37.565Z,0.73
2022-11-22T19:19:05.339Z,0.98
2022-11-22T19:21:34.461Z,0.38
2022-11-22T19:24:04.303Z,0.60
2022-11-22T19:26:32.208Z,0.85
2022-11-22T19:29:02.457Z,0.52
2022-11-22T19:31:31.643Z,0.55
2022-11-22T19:34:00.578Z,0.57
2022-11-22T19:36:33.855Z,0.57
2022-11-22T19:39:05.987Z,0.50
2022-11-22T19:41:34.860Z,0.80
2022-11-22T19:44:03.274Z,1.10
2022-11-22T19:46:31.425Z,1.25
2022-11-22T19:49:01.094Z,0.85
2022-11-22T19:51:31.726Z,1.05
2022-11-22T19:54:02.519Z,1.10
2022-11-22T19:56:34.557Z,0.63
2022-11-22T19:59:05.359Z,1.02
2022-11-22T20:01:36.031Z,0.60
2022-11-22T20:04:07.019Z,0.70
2022-11-22T20:06:36.836Z,1.25
2022-11-22T20:09:09.065Z,0.98
2022-11-22T20:11:39.571Z,1.02
2022-11-22T20:14:07.624Z,0.70
2022-11-22T20:16:35.509Z,0.75
2022-11-22T20:19:06.675Z,0.52
2022-11-22T20:21:36.054Z,0.55
2022-11-22T20:24:05.194Z,0.57
2022-11-22T20:26:35.614Z,0.55
2022-11-22T20:29:12.229Z,0.60
2022-11-22T20:31:40.998Z,1.10
2022-11-22T20:34:10.163Z,0.40
2022-11-22T20:36:37.950Z,0.68
2022-11-22T20:39:27.286Z,0.43
2022-11-22T20:42:25.896Z,0.45
2022-11-22T20:44:44.327Z,0.98
2022-11-22T20:47:12.059Z,0.50
2022-11-22T20:49:45.200Z,0.22
2022-11-22T20:52:13.362Z,0.45
2022-11-22T20:54:41.053Z,0.85
2022-11-22T20:57:08.725Z,0.32
2022-11-22T20:59:36.423Z,0.65
2022-11-22T21:02:09.249Z,0.65
2022-11-22T21:04:37.210Z,0.82
2022-11-22T21:07:05.192Z,0.50
2022-11-22T21:09:32.898Z,0.47
2022-11-22T21:12:00.607Z,0.73
2022-11-22T21:14:28.411Z,0.45
2022-11-22T21:16:56.100Z,0.88
2022-11-22T21:19:25.463Z,0.80
2022-11-22T21:21:53.755Z,0.60
2022-11-22T21:24:21.467Z,0.30
2022-11-22T21:26:50.571Z,0.20
2022-11-22T21:29:18.296Z,0.63
2022-11-22T21:31:46.011Z,0.45
2022-11-22T21:34:13.871Z,1.10
2022-11-22T21:36:42.919Z,0.28
2022-11-22T21:39:10.758Z,0.77
2022-11-22T21:41:40.147Z,0.50
2022-11-22T21:44:08.572Z,0.80
2022-11-22T21:46:36.350Z,0.40
2022-11-22T21:49:04.127Z,0.57
2022-11-22T21:51:32.105Z,0.63
2022-11-22T21:54:02.845Z,0.68
2022-11-22T21:56:31.846Z,0.38
2022-11-22T21:58:59.675Z,0.70
2022-11-22T22:01:27.751Z,1.10
2022-11-22T22:03:55.998Z,0.85
2022-11-22T22:06:24.967Z,0.60
2022-11-22T22:08:52.763Z,0.55
2022-11-22T22:11:22.331Z,0.45
2022-11-22T22:13:50.167Z,0.88
2022-11-22T22:16:22.695Z,0.68
2022-11-22T22:18:51.364Z,0.93
2022-11-22T22:21:21.102Z,0.60
2022-11-22T22:23:49.242Z,0.88
2022-11-22T22:26:18.428Z,0.75
2022-11-22T22:28:47.768Z,0.93
2022-11-22T22:31:21.299Z,0.47
2022-11-22T22:33:50.958Z,0.73
2022-11-22T22:36:18.733Z,0.85
2022-11-22T22:38:46.403Z,0.70
2022-11-22T22:41:14.645Z,0.80
2022-11-22T22:43:44.766Z,0.47
2022-11-22T22:46:16.603Z,0.45
2022-11-22T22:48:45.264Z,0.47
2022-11-22T22:51:16.858Z,0.82
2022-11-22T22:53:45.780Z,0.68
2022-11-22T22:56:16.142Z,0.70
2022-11-22T22:58:44.382Z,0.65
2022-11-22T23:01:17.921Z,0.65
2022-11-22T23:03:48.630Z,0.73
2022-11-22T23:06:16.929Z,0.47
2022-11-22T23:08:47.590Z,0.50
2022-11-22T23:11:18.213Z,0.43
2022-11-22T23:13:46.121Z,0.45
2022-11-22T23:16:16.431Z,0.55
2022-11-22T23:18:45.711Z,1.20
2022-11-22T23:21:16.199Z,0.75
2022-11-22T23:23:43.954Z,0.70
2022-11-22T23:26:13.674Z,0.47
2022-11-22T23:28:41.413Z,0.60
2022-11-22T23:31:12.740Z,1.30
2022-11-22T23:33:43.078Z,0.65
2022-11-22T23:36:13.539Z,0.82
2022-11-22T23:38:42.067Z,1.05
2022-11-22T23:41:13.823Z,0.40
2022-11-22T23:43:41.838Z,0.60
2022-11-22T23:46:15.804Z,0.98
2022-11-22T23:48:46.431Z,0.63
2022-11-22T23:51:16.602Z,0.77
2022-11-22T23:53:44.393Z,0.45
2022-11-22T23:56:20.453Z,0.50
2022-11-22T23:58:50.036Z,0.50
